Palmer, AK

1:43 PM AKST on February 08, 2016 (GMT -0900)
Cedar Hills | | Change Station
CLOSE
Current Station
Personal Weather Station
Location: Palmer, AK
Elevation: 500 ft
Nearby Weather Stations

Elev 500 ft 61.62 °N, 149.12 °W | Updated 13 minutes ago

Scattered Clouds
Scattered Clouds
34.0 °F
Feels Like 29 °F
N
5.8
Wind Variable Wind from WNW

Today
High -- | Low -- °F
--% Chance of Precip.
Yesterday
High -- | Low -- °F
Precip. -- in
Pressure 29.82 in
Visibility 10.0 miles
Clouds Few 6000 ft
Scattered Clouds 20000 ft
Windchill 29 °F
Dew Point 18 °F
Humidity 52%
Rainfall 0.00 in
Snow Depth Not available.
9:01 AM 5:21 PM
New Moon, 0% visible
METAR PAAQ 082153Z 35011KT 10SM FEW060 SCT200 03/M07 A2980 RMK AO2 SLP096 T00331072
Pressure 29.82 in
Visibility 10.0 miles
Clouds Few 6000 ft
Scattered Clouds 20000 ft
Windchill 29 °F
Dew Point 18 °F
Humidity 52%
Rainfall 0.00 in
Snow Depth Not available.
9:01 AM 5:21 PM
New Moon, 0% visible
METAR PAAQ 082153Z 35011KT 10SM FEW060 SCT200 03/M07 A2980 RMK AO2 SLP096 T00331072

10-Day Weather Forecast

Almanac

Astronomy

Feb. 08, 2016 Rise Set
Actual Time
Civil Twilight
Nautical Twilight
Astronomical Twilight
Moon
Length of Visible Light
Length of Day
Tomorrow will be .
, % of the Moon is Illuminated

Today's Extremes

State Highs State Lows

Community

WunderPhotos

Upload Photos

1,891,521 photos uploaded!

WunderBlog® & News

Nearby

Air Quality

  Air Quality AQ Index Pollutant
Not available.

Snow Depth

Station Depth Elevation

Earthquake Activity

City Distance Mag. Time & Date
Minimum magnitude displayed is 2.5.

Coastal Water Temperatures

Place Temperature

Stations

Nearby Weather Stations

Station Location Temp. Windchill Dew Point Humidity Wind Precip. Elev Updated Type
                   

Watches & Warnings

There are currently no watches in effect.